Georgtown Station, New York
Current Conditions -  °F | °C
As of 8:53 PM on Friday 24 Oct 2014 (Local Time) from KRME Reporting Station
Clear Clear  
Wind Chill: 41°   Ceiling: Unl
Heat Index: 44°   Visibility: 10mi
Dew Point: 40°   Wind: 6mph
Humidity: 85%   Direction: 320°NW
Pressure: 29.92"   Gusts: NA
Location:  42.8314°N, 75.6471°W
Report Text: KRME 250053Z 32005KT 10SM CLR 07/04 A2992 RMK AO2 SLP131 T00670044
Loading
Personal Weather Stations






























Interactive Weather Map New forecast layout! Learn more

10-Day Weather Forecast

Advertisements
Track Severe Weather on mobile